createdAt,value
2023-12-13T00:00:48.659Z,2.20
2023-12-13T00:01:51.288Z,3.70
2023-12-13T00:02:48.620Z,3.50
2023-12-13T00:03:48.665Z,0.50
2023-12-13T00:04:48.829Z,2.40
2023-12-13T00:05:48.604Z,1.60
2023-12-13T00:06:48.581Z,1.30
2023-12-13T00:07:48.650Z,1.80
2023-12-13T00:08:48.570Z,0.70
2023-12-13T00:09:48.549Z,1.10
2023-12-13T00:10:48.812Z,0.90
2023-12-13T00:11:48.530Z,0.90
2023-12-13T00:12:48.508Z,1.60
2023-12-13T00:13:48.563Z,3.90
2023-12-13T00:14:48.494Z,1.40
2023-12-13T00:15:48.503Z,1.20
2023-12-13T00:16:48.501Z,2.10
2023-12-13T00:17:48.557Z,0.50
2023-12-13T00:18:48.533Z,1.30
2023-12-13T00:19:48.502Z,1.10
2023-12-13T00:20:48.439Z,1.30
2023-12-13T00:21:48.401Z,1.30
2023-12-13T00:22:48.499Z,1.30
2023-12-13T00:23:48.395Z,1.30
2023-12-13T00:24:48.372Z,1.20
2023-12-13T00:25:48.459Z,1.10
2023-12-13T00:26:48.364Z,1.40
2023-12-13T00:27:48.370Z,2.50
2023-12-13T00:28:48.352Z,2.90
2023-12-13T00:29:48.343Z,1.50
2023-12-13T00:30:48.336Z,1.10
2023-12-13T00:31:48.328Z,1.70
2023-12-13T00:32:48.338Z,1.20
2023-12-13T00:33:48.340Z,1.50
2023-12-13T00:34:48.315Z,1.80
2023-12-13T00:35:48.251Z,1.70
2023-12-13T00:36:48.236Z,2.00
2023-12-13T00:37:48.279Z,2.10
2023-12-13T00:38:48.223Z,0.90
2023-12-13T00:39:48.208Z,2.00
2023-12-13T00:40:48.275Z,0.80
2023-12-13T00:41:48.207Z,3.00
2023-12-13T00:42:48.192Z,1.20
2023-12-13T00:43:48.272Z,0.50
2023-12-13T00:44:48.167Z,1.30
2023-12-13T00:45:48.135Z,1.60
2023-12-13T00:46:48.141Z,2.00
2023-12-13T00:47:48.281Z,0.80
2023-12-13T00:48:48.139Z,1.10
2023-12-13T00:49:48.109Z,0.60
2023-12-13T00:50:48.093Z,2.10
2023-12-13T00:51:48.104Z,1.50
2023-12-13T00:52:48.150Z,3.00
2023-12-13T00:53:48.078Z,1.30
2023-12-13T00:54:48.060Z,1.10
2023-12-13T00:55:48.055Z,0.60
2023-12-13T00:56:48.050Z,1.40
2023-12-13T00:57:48.038Z,1.50
2023-12-13T00:58:48.031Z,1.00
2023-12-13T00:59:47.999Z,1.10
2023-12-13T01:00:48.000Z,1.90
2023-12-13T01:01:48.063Z,1.00
2023-12-13T01:02:48.078Z,1.30
2023-12-13T01:03:47.965Z,0.50
2023-12-13T01:04:48.012Z,1.20
2023-12-13T01:05:48.011Z,0.90
2023-12-13T01:06:47.934Z,1.90
2023-12-13T01:07:47.963Z,0.90
2023-12-13T01:08:47.893Z,0.90
2023-12-13T01:09:47.894Z,1.40
2023-12-13T01:10:47.924Z,1.80
2023-12-13T01:11:47.870Z,1.20
2023-12-13T01:12:47.874Z,1.00
2023-12-13T01:13:47.972Z,1.70
2023-12-13T01:14:47.835Z,1.70
2023-12-13T01:15:47.829Z,0.90
2023-12-13T01:16:47.904Z,1.70
2023-12-13T01:17:47.863Z,1.60
2023-12-13T01:18:47.858Z,1.50
2023-12-13T01:19:47.816Z,1.50
2023-12-13T01:20:47.762Z,2.00
2023-12-13T01:21:47.749Z,1.30
2023-12-13T01:22:47.890Z,6.10
2023-12-13T01:23:47.747Z,1.40
2023-12-13T01:24:47.736Z,1.20
2023-12-13T01:25:47.811Z,0.30
2023-12-13T01:26:47.702Z,0.90
2023-12-13T01:27:47.698Z,1.00
2023-12-13T01:28:47.782Z,1.70
2023-12-13T01:29:47.667Z,1.10
2023-12-13T01:30:47.733Z,1.00
2023-12-13T01:31:47.686Z,0.90
2023-12-13T01:32:47.732Z,0.40
2023-12-13T01:33:47.733Z,1.70
2023-12-13T01:34:47.651Z,1.80
2023-12-13T01:35:47.630Z,2.50
2023-12-13T01:36:47.617Z,2.60
2023-12-13T01:37:47.629Z,1.50
2023-12-13T01:38:47.577Z,1.20
2023-12-13T01:39:47.564Z,0.40
2023-12-13T01:41:10.200Z,1.50
2023-12-13T01:41:47.562Z,1.90
2023-12-13T01:42:47.560Z,2.20
2023-12-13T01:43:47.620Z,0.80
2023-12-13T01:44:47.558Z,4.90
2023-12-13T01:45:47.530Z,2.10
2023-12-13T01:46:47.523Z,1.30
2023-12-13T01:47:47.508Z,3.40
2023-12-13T01:48:47.562Z,3.30
2023-12-13T01:49:47.568Z,2.30
2023-12-13T01:50:47.471Z,1.20
2023-12-13T01:51:47.492Z,1.90
2023-12-13T01:52:47.507Z,2.10
2023-12-13T01:53:47.411Z,1.20
2023-12-13T01:54:47.398Z,1.10
2023-12-13T01:55:47.451Z,2.10
2023-12-13T01:56:47.404Z,1.40
2023-12-13T01:57:47.385Z,1.60
2023-12-13T01:58:47.458Z,2.60
2023-12-13T01:59:47.367Z,1.10
2023-12-13T02:00:47.357Z,1.60
2023-12-13T02:01:47.360Z,1.90
2023-12-13T02:02:47.446Z,1.70
2023-12-13T02:03:47.320Z,3.10
2023-12-13T02:04:47.368Z,1.30
2023-12-13T02:05:47.331Z,1.80
2023-12-13T02:06:47.348Z,3.80
2023-12-13T02:07:47.296Z,2.70
2023-12-13T02:08:47.303Z,1.80
2023-12-13T02:09:47.252Z,2.30
2023-12-13T02:10:47.268Z,1.60
2023-12-13T02:11:47.225Z,1.50
2023-12-13T02:12:47.204Z,1.50
2023-12-13T02:13:47.240Z,1.20
2023-12-13T02:14:47.182Z,1.10
2023-12-13T02:15:47.183Z,2.50
2023-12-13T02:16:47.317Z,2.20
2023-12-13T02:17:47.221Z,1.20
2023-12-13T02:18:47.291Z,2.40
2023-12-13T02:19:47.245Z,4.80
2023-12-13T02:20:47.113Z,1.80
2023-12-13T02:21:47.134Z,2.40
2023-12-13T02:22:47.131Z,2.40
2023-12-13T02:23:47.127Z,1.80
2023-12-13T02:24:47.076Z,1.40
2023-12-13T02:25:47.085Z,2.20
2023-12-13T02:26:47.048Z,3.90
2023-12-13T02:27:47.038Z,1.10
2023-12-13T02:28:47.113Z,2.70
2023-12-13T02:29:47.017Z,2.60
2023-12-13T02:30:47.037Z,3.10
2023-12-13T02:31:47.007Z,2.00
2023-12-13T02:32:47.026Z,2.40
2023-12-13T02:33:46.992Z,3.10
2023-12-13T02:34:47.028Z,4.70
2023-12-13T02:35:46.966Z,1.90
2023-12-13T02:36:46.960Z,3.40
2023-12-13T02:37:46.952Z,2.90
2023-12-13T02:38:46.958Z,2.90
2023-12-13T02:39:46.932Z,4.40
2023-12-13T02:40:46.994Z,2.80
2023-12-13T02:41:46.949Z,4.10
2023-12-13T02:42:46.874Z,2.80
2023-12-13T02:43:47.062Z,4.30
2023-12-13T02:44:46.881Z,4.20
2023-12-13T02:45:46.848Z,4.60
2023-12-13T02:46:46.882Z,3.90
2023-12-13T02:47:46.930Z,4.20
2023-12-13T02:48:46.923Z,4.30
2023-12-13T02:49:46.812Z,4.60
2023-12-13T02:50:46.817Z,3.40
2023-12-13T02:51:46.776Z,2.70
2023-12-13T02:52:46.809Z,2.80
2023-12-13T02:53:46.838Z,2.80
2023-12-13T02:54:46.761Z,2.60
2023-12-13T02:55:46.809Z,2.50
2023-12-13T02:56:46.743Z,5.00
2023-12-13T02:57:46.725Z,6.00
2023-12-13T02:58:46.767Z,4.10
2023-12-13T02:59:46.708Z,4.30
2023-12-13T03:00:46.712Z,8.90
2023-12-13T03:01:46.682Z,4.10
2023-12-13T03:02:46.742Z,3.70
2023-12-13T03:03:46.666Z,2.90
2023-12-13T03:04:46.708Z,1.80
2023-12-13T03:05:46.719Z,3.30
2023-12-13T03:06:46.630Z,4.20
2023-12-13T03:07:46.687Z,6.40
2023-12-13T03:08:46.640Z,4.10
2023-12-13T03:09:46.577Z,3.70
2023-12-13T03:10:46.618Z,6.00
2023-12-13T03:11:46.578Z,3.90
2023-12-13T03:12:46.577Z,3.20
2023-12-13T03:13:46.617Z,4.50
2023-12-13T03:14:46.540Z,3.40
2023-12-13T03:15:46.528Z,4.30
2023-12-13T03:16:46.538Z,2.40
2023-12-13T03:17:46.567Z,2.10
2023-12-13T03:18:46.567Z,3.40
2023-12-13T03:19:46.499Z,4.60
2023-12-13T03:20:46.479Z,3.60
2023-12-13T03:21:46.453Z,3.90
2023-12-13T03:22:46.484Z,3.20
2023-12-13T03:23:46.485Z,3.10
2023-12-13T03:24:46.423Z,4.20
2023-12-13T03:25:46.450Z,3.70
2023-12-13T03:26:46.408Z,7.10
2023-12-13T03:27:46.406Z,6.30
2023-12-13T03:28:46.437Z,4.00
2023-12-13T03:29:46.370Z,2.20
2023-12-13T03:30:46.426Z,5.90
2023-12-13T03:31:46.436Z,4.10
2023-12-13T03:32:49.115Z,5.40
2023-12-13T03:33:46.419Z,5.80
2023-12-13T03:34:46.370Z,2.40
2023-12-13T03:35:46.328Z,5.00
2023-12-13T03:36:46.306Z,3.30
2023-12-13T03:37:46.365Z,4.40
2023-12-13T03:38:46.309Z,4.20
2023-12-13T03:39:46.277Z,2.40
2023-12-13T03:40:46.279Z,7.70
2023-12-13T03:41:46.266Z,5.00
2023-12-13T03:42:46.268Z,5.50
2023-12-13T03:43:46.280Z,2.50
2023-12-13T03:44:46.369Z,5.30
2023-12-13T03:45:46.204Z,3.70
2023-12-13T03:46:46.246Z,6.70
2023-12-13T03:47:46.400Z,3.30
2023-12-13T03:48:46.322Z,3.70
2023-12-13T03:49:46.335Z,5.90
2023-12-13T03:50:46.162Z,4.80
2023-12-13T03:51:46.131Z,4.90
2023-12-13T03:52:46.262Z,6.80
2023-12-13T03:53:46.136Z,7.80
2023-12-13T03:54:46.115Z,4.40
2023-12-13T03:55:46.116Z,2.70
2023-12-13T03:56:46.092Z,4.40
2023-12-13T03:57:46.086Z,4.10
2023-12-13T03:58:46.211Z,4.10
2023-12-13T03:59:46.051Z,3.40
2023-12-13T04:00:46.051Z,3.50
2023-12-13T04:01:46.096Z,7.50
2023-12-13T04:02:46.013Z,4.60
2023-12-13T04:03:46.100Z,3.20
2023-12-13T04:04:46.070Z,3.40
2023-12-13T04:05:46.042Z,6.30
2023-12-13T04:06:45.985Z,7.00
2023-12-13T04:07:46.015Z,4.80
2023-12-13T04:08:45.983Z,3.90
2023-12-13T04:09:45.953Z,5.20
2023-12-13T04:10:45.963Z,5.70
2023-12-13T04:11:45.962Z,5.60
2023-12-13T04:12:45.939Z,3.40
2023-12-13T04:13:45.962Z,3.70
2023-12-13T04:14:45.891Z,3.30
2023-12-13T04:15:45.878Z,4.00
2023-12-13T04:16:45.924Z,3.00
2023-12-13T04:17:45.885Z,4.40
2023-12-13T04:18:45.967Z,6.30
2023-12-13T04:19:45.884Z,5.10
2023-12-13T04:20:45.836Z,5.50
2023-12-13T04:21:45.804Z,7.00
2023-12-13T04:22:45.862Z,6.20
2023-12-13T04:23:45.811Z,7.40
2023-12-13T04:24:45.776Z,4.10
2023-12-13T04:25:45.859Z,6.20
2023-12-13T04:26:45.768Z,4.10
2023-12-13T04:27:45.763Z,7.00
2023-12-13T04:28:45.828Z,8.60
2023-12-13T04:29:45.751Z,7.90
2023-12-13T04:30:45.764Z,6.70
2023-12-13T04:31:45.806Z,5.10
2023-12-13T04:32:45.720Z,8.90
2023-12-13T04:33:45.733Z,3.60
2023-12-13T04:34:45.744Z,4.30
2023-12-13T04:35:45.668Z,8.50
2023-12-13T04:36:45.686Z,6.40
2023-12-13T04:37:45.746Z,6.40
2023-12-13T04:38:45.676Z,3.20
2023-12-13T04:39:45.631Z,6.60
2023-12-13T04:40:45.666Z,3.80
2023-12-13T04:41:45.621Z,4.10
2023-12-13T04:42:45.600Z,4.50
2023-12-13T04:43:45.641Z,8.00
2023-12-13T04:44:45.613Z,4.90
2023-12-13T04:45:45.552Z,5.50
2023-12-13T04:46:45.587Z,6.80
2023-12-13T04:47:45.576Z,6.00
2023-12-13T04:48:45.550Z,5.40
2023-12-13T04:49:45.593Z,7.30
2023-12-13T04:50:45.529Z,7.10
2023-12-13T04:51:45.503Z,5.40
2023-12-13T04:52:45.510Z,6.80
2023-12-13T04:53:45.492Z,6.90
2023-12-13T04:54:45.499Z,7.90
2023-12-13T04:55:45.518Z,5.70
2023-12-13T04:56:45.466Z,7.90
2023-12-13T04:57:45.441Z,5.10
2023-12-13T04:58:45.447Z,7.90
2023-12-13T04:59:45.445Z,4.30
2023-12-13T05:00:45.434Z,5.00
2023-12-13T05:01:45.453Z,8.10
2023-12-13T05:02:45.387Z,8.20
2023-12-13T05:03:46.835Z,7.90
2023-12-13T05:04:45.450Z,7.50
2023-12-13T05:05:45.428Z,9.00
2023-12-13T05:06:45.342Z,10.20
2023-12-13T05:07:45.442Z,7.80
2023-12-13T05:08:45.334Z,5.40
2023-12-13T05:09:45.341Z,8.20
2023-12-13T05:10:45.410Z,10.40
2023-12-13T05:11:45.305Z,9.80
2023-12-13T05:12:45.329Z,8.50
2023-12-13T05:13:45.288Z,8.00
2023-12-13T05:14:45.286Z,8.30
2023-12-13T05:15:45.238Z,8.60
2023-12-13T05:16:45.274Z,8.80
2023-12-13T05:17:45.240Z,6.60
2023-12-13T05:18:45.270Z,9.00
2023-12-13T05:19:45.252Z,7.30
2023-12-13T05:20:45.186Z,10.70
2023-12-13T05:21:45.184Z,7.60
2023-12-13T05:22:45.220Z,7.50
2023-12-13T05:23:45.155Z,9.90
2023-12-13T05:24:45.205Z,9.40
2023-12-13T05:25:45.208Z,7.70
2023-12-13T05:26:45.133Z,5.60
2023-12-13T05:27:45.114Z,10.90
2023-12-13T05:28:45.216Z,5.50
2023-12-13T05:29:45.144Z,7.70
2023-12-13T05:30:45.134Z,5.20
2023-12-13T05:31:45.098Z,6.80
2023-12-13T05:32:45.087Z,7.70
2023-12-13T05:33:45.068Z,6.30
2023-12-13T05:34:45.110Z,8.60
2023-12-13T05:35:45.059Z,5.90
2023-12-13T05:36:45.068Z,5.40
2023-12-13T05:37:45.075Z,7.20
2023-12-13T05:38:44.998Z,9.80
2023-12-13T05:39:45.024Z,7.00
2023-12-13T05:40:45.004Z,5.90
2023-12-13T05:41:44.958Z,7.10
2023-12-13T05:42:44.956Z,5.20
2023-12-13T05:43:44.994Z,6.90
2023-12-13T05:44:44.969Z,5.80
2023-12-13T05:45:44.924Z,5.30
2023-12-13T05:46:44.951Z,8.00
2023-12-13T05:47:44.946Z,7.50
2023-12-13T05:48:44.955Z,6.20
2023-12-13T05:49:44.982Z,10.50
2023-12-13T05:50:44.870Z,5.50
2023-12-13T05:51:44.865Z,8.40
2023-12-13T05:52:44.871Z,6.20
2023-12-13T05:53:44.862Z,4.90
2023-12-13T05:54:44.839Z,10.00
2023-12-13T05:55:44.848Z,6.30
2023-12-13T05:56:44.794Z,7.20
2023-12-13T05:57:44.802Z,6.00
2023-12-13T05:58:44.926Z,7.20
2023-12-13T05:59:44.852Z,8.60
2023-12-13T06:00:44.767Z,5.90
2023-12-13T06:01:44.779Z,6.00
2023-12-13T06:02:55.082Z,9.90
2023-12-13T06:03:44.747Z,6.30
2023-12-13T06:04:44.926Z,5.80
2023-12-13T06:05:44.906Z,6.50
2023-12-13T06:06:44.777Z,7.10
2023-12-13T06:07:44.736Z,5.30
2023-12-13T06:08:44.679Z,6.40
2023-12-13T06:09:44.698Z,6.30
2023-12-13T06:10:44.710Z,5.00
2023-12-13T06:11:44.652Z,7.90
2023-12-13T06:12:44.642Z,8.10
2023-12-13T06:13:44.660Z,8.10
2023-12-13T06:14:44.650Z,7.70
2023-12-13T06:15:44.602Z,11.20
2023-12-13T06:16:44.608Z,7.50
2023-12-13T06:17:44.615Z,8.00
2023-12-13T06:18:44.608Z,7.70
2023-12-13T06:19:44.658Z,6.90
2023-12-13T06:20:44.542Z,7.20
2023-12-13T06:21:44.554Z,7.20
2023-12-13T06:22:44.552Z,5.70
2023-12-13T06:23:44.500Z,7.00
2023-12-13T06:24:44.526Z,7.00
2023-12-13T06:25:44.537Z,10.00
2023-12-13T06:26:44.490Z,6.60
2023-12-13T06:27:44.498Z,7.10
2023-12-13T06:28:44.489Z,10.20
2023-12-13T06:29:44.458Z,8.00
2023-12-13T06:30:44.496Z,6.30
2023-12-13T06:31:44.493Z,7.00
2023-12-13T06:32:44.495Z,8.20
2023-12-13T06:33:44.535Z,7.90
2023-12-13T06:34:44.449Z,7.70
2023-12-13T06:35:44.378Z,9.60
2023-12-13T06:36:44.377Z,7.30
2023-12-13T06:37:44.381Z,8.50
2023-12-13T06:38:44.367Z,5.50
2023-12-13T06:39:44.353Z,8.20
2023-12-13T06:40:44.351Z,8.70
2023-12-13T06:41:44.314Z,7.80
2023-12-13T06:42:44.315Z,8.00
2023-12-13T06:43:44.334Z,7.40
2023-12-13T06:44:44.295Z,9.70
2023-12-13T06:45:44.271Z,6.60
2023-12-13T06:46:44.266Z,5.30
2023-12-13T06:47:44.512Z,8.30
2023-12-13T06:48:44.318Z,8.70
2023-12-13T06:49:44.271Z,6.70
2023-12-13T06:50:44.253Z,7.60
2023-12-13T06:51:44.225Z,9.20
2023-12-13T06:52:44.243Z,8.60
2023-12-13T06:53:44.195Z,9.50
2023-12-13T06:54:44.184Z,7.90
2023-12-13T06:55:44.195Z,8.40
2023-12-13T06:56:44.160Z,7.30
2023-12-13T06:57:44.176Z,10.60
2023-12-13T06:58:44.204Z,7.50
2023-12-13T06:59:44.130Z,8.90
2023-12-13T07:00:44.143Z,8.90
2023-12-13T07:01:44.138Z,8.80
2023-12-13T07:02:44.139Z,8.40
2023-12-13T07:03:44.103Z,8.10
2023-12-13T07:04:44.206Z,8.20
2023-12-13T07:05:44.158Z,8.40
2023-12-13T07:06:44.049Z,7.60
2023-12-13T07:07:44.081Z,7.10
2023-12-13T07:08:44.037Z,7.30
2023-12-13T07:09:44.028Z,11.90
2023-12-13T07:10:44.034Z,7.10
2023-12-13T07:11:44.007Z,10.20
2023-12-13T07:12:44.000Z,9.70
2023-12-13T07:13:44.016Z,9.40
2023-12-13T07:14:43.971Z,7.40
2023-12-13T07:15:43.984Z,11.80
2023-12-13T07:16:44.003Z,7.70
2023-12-13T07:17:44.252Z,12.20
2023-12-13T07:18:43.968Z,10.40
2023-12-13T07:19:44.060Z,7.30
2023-12-13T07:20:44.017Z,9.90
2023-12-13T07:21:43.905Z,8.60
2023-12-13T07:22:43.907Z,9.60
2023-12-13T07:23:43.894Z,10.50
2023-12-13T07:24:43.892Z,9.80
2023-12-13T07:25:43.927Z,11.20
2023-12-13T07:26:43.869Z,9.10
2023-12-13T07:27:43.859Z,8.60
2023-12-13T07:28:43.840Z,11.90
2023-12-13T07:29:43.827Z,11.00
2023-12-13T07:30:52.274Z,7.90
2023-12-13T07:31:43.908Z,10.10
2023-12-13T07:32:43.820Z,9.60
2023-12-13T07:33:44.475Z,8.00
2023-12-13T07:34:43.806Z,8.30
2023-12-13T07:35:43.756Z,10.80
2023-12-13T07:36:43.730Z,12.30
2023-12-13T07:37:43.809Z,7.50
2023-12-13T07:38:43.707Z,8.60
2023-12-13T07:39:43.688Z,8.20
2023-12-13T07:40:43.774Z,6.60
2023-12-13T07:41:43.665Z,7.40
2023-12-13T07:42:43.661Z,7.90
2023-12-13T07:43:43.722Z,10.30
2023-12-13T07:44:43.632Z,8.90
2023-12-13T07:45:43.672Z,6.40
2023-12-13T07:46:43.760Z,6.20
2023-12-13T07:47:44.401Z,7.60
2023-12-13T07:48:43.933Z,10.30
2023-12-13T07:49:43.798Z,6.00
2023-12-13T07:50:43.721Z,5.80
2023-12-13T07:51:43.563Z,10.20
2023-12-13T07:52:43.589Z,10.50
2023-12-13T07:53:44.214Z,7.30
2023-12-13T07:54:43.616Z,7.50
2023-12-13T07:55:43.550Z,8.40
2023-12-13T07:56:43.522Z,9.70
2023-12-13T07:57:43.518Z,12.10
2023-12-13T07:58:43.568Z,10.00
2023-12-13T07:59:43.477Z,8.00
2023-12-13T08:00:43.507Z,6.70
2023-12-13T08:01:43.477Z,10.60
2023-12-13T08:02:46.808Z,8.60
2023-12-13T08:03:43.516Z,6.50
2023-12-13T08:04:43.491Z,12.60
2023-12-13T08:05:43.545Z,7.90
2023-12-13T08:06:43.399Z,7.70
2023-12-13T08:07:43.403Z,5.60
2023-12-13T08:08:43.424Z,7.20
2023-12-13T08:09:43.419Z,10.30
2023-12-13T08:10:43.412Z,9.00
2023-12-13T08:11:43.352Z,11.10
2023-12-13T08:12:43.347Z,8.30
2023-12-13T08:13:43.486Z,11.20
2023-12-13T08:14:43.322Z,8.60
2023-12-13T08:15:43.370Z,11.20
2023-12-13T08:16:43.343Z,9.70
2023-12-13T08:17:43.363Z,9.10
2023-12-13T08:18:43.555Z,12.20
2023-12-13T08:19:43.323Z,14.20
2023-12-13T08:20:43.297Z,9.10
2023-12-13T08:21:43.261Z,9.90
2023-12-13T08:22:43.260Z,11.20
2023-12-13T08:23:43.222Z,8.90
2023-12-13T08:24:43.235Z,16.10
2023-12-13T08:25:43.294Z,8.90
2023-12-13T08:26:43.209Z,8.20
2023-12-13T08:27:43.195Z,7.90
2023-12-13T08:28:43.217Z,9.60
2023-12-13T08:29:43.159Z,11.30
2023-12-13T08:30:43.182Z,10.30
2023-12-13T08:31:43.160Z,7.40
2023-12-13T08:32:43.150Z,9.80
2023-12-13T08:33:43.173Z,11.20
2023-12-13T08:34:43.141Z,10.00
2023-12-13T08:35:43.114Z,9.70
2023-12-13T08:36:43.077Z,10.40
2023-12-13T08:37:43.082Z,8.70
2023-12-13T08:38:43.058Z,6.80
2023-12-13T08:39:43.082Z,11.60
2023-12-13T08:40:43.072Z,8.70
2023-12-13T08:41:43.059Z,10.10
2023-12-13T08:42:45.689Z,5.70
2023-12-13T08:43:43.124Z,5.40
2023-12-13T08:44:42.995Z,9.20
2023-12-13T08:45:43.018Z,9.00
2023-12-13T08:46:42.997Z,6.40
2023-12-13T08:47:42.992Z,6.40
2023-12-13T08:48:43.043Z,6.70
2023-12-13T08:49:44.392Z,5.40
2023-12-13T08:50:42.964Z,10.10
2023-12-13T08:51:42.935Z,8.30
2023-12-13T08:52:42.954Z,6.30
2023-12-13T08:53:42.913Z,5.20
2023-12-13T08:54:42.889Z,5.30
2023-12-13T08:55:42.916Z,10.20
2023-12-13T08:56:42.877Z,8.10
2023-12-13T08:57:42.854Z,7.00
2023-12-13T08:58:42.880Z,7.50
2023-12-13T08:59:42.857Z,7.90
2023-12-13T09:00:42.873Z,6.40
2023-12-13T09:01:42.865Z,6.90
2023-12-13T09:02:42.806Z,5.40
2023-12-13T09:03:42.825Z,5.70
2023-12-13T09:04:42.801Z,6.50
2023-12-13T09:05:42.835Z,7.50
2023-12-13T09:06:42.750Z,8.90
2023-12-13T09:07:42.793Z,6.40
2023-12-13T09:08:42.749Z,5.00
2023-12-13T09:09:42.728Z,4.60
2023-12-13T09:10:42.776Z,4.10
2023-12-13T09:11:42.719Z,5.20
2023-12-13T09:12:42.721Z,5.90
2023-12-13T09:13:42.700Z,4.80
2023-12-13T09:14:42.686Z,4.70
2023-12-13T09:15:42.714Z,4.30
2023-12-13T09:16:42.649Z,4.50
2023-12-13T09:17:42.680Z,6.40
2023-12-13T09:18:42.657Z,5.40
2023-12-13T09:19:42.695Z,9.60
2023-12-13T09:20:42.632Z,6.80
2023-12-13T09:21:42.603Z,6.70
2023-12-13T09:22:42.618Z,5.30
2023-12-13T09:23:44.173Z,4.80
2023-12-13T09:24:42.564Z,3.50
2023-12-13T09:25:42.587Z,5.10
2023-12-13T09:26:42.574Z,5.20
2023-12-13T09:27:42.540Z,3.60
2023-12-13T09:28:42.558Z,4.30
2023-12-13T09:29:42.519Z,2.70
2023-12-13T09:30:42.529Z,3.10
2023-12-13T09:31:42.590Z,4.30
2023-12-13T09:32:44.459Z,4.00
2023-12-13T09:33:42.635Z,5.00
2023-12-13T09:34:42.499Z,5.40
2023-12-13T09:35:42.464Z,5.00
2023-12-13T09:36:42.464Z,4.20
2023-12-13T09:37:42.471Z,4.30
2023-12-13T09:38:42.401Z,2.60
2023-12-13T09:39:42.504Z,4.90
2023-12-13T09:40:42.438Z,5.30
2023-12-13T09:41:42.378Z,4.80
2023-12-13T09:42:42.362Z,4.50
2023-12-13T09:43:42.405Z,4.80
2023-12-13T09:44:42.364Z,3.90
2023-12-13T09:45:42.382Z,2.20
2023-12-13T09:46:42.359Z,4.30
2023-12-13T09:47:42.425Z,2.30
2023-12-13T09:48:42.320Z,5.90
2023-12-13T09:49:42.406Z,3.70
2023-12-13T09:50:42.421Z,3.60
2023-12-13T09:51:42.291Z,4.60
2023-12-13T09:52:42.291Z,1.10
2023-12-13T09:53:42.248Z,4.00
2023-12-13T09:54:42.262Z,1.10
2023-12-13T09:55:42.288Z,3.00
2023-12-13T09:56:42.225Z,1.90
2023-12-13T09:57:42.215Z,1.30
2023-12-13T09:58:42.233Z,2.20
2023-12-13T09:59:42.188Z,1.70
2023-12-13T10:00:42.210Z,2.00
2023-12-13T10:01:42.215Z,1.60
2023-12-13T10:02:42.226Z,1.40
2023-12-13T10:03:42.156Z,2.10
2023-12-13T10:04:42.202Z,2.20
2023-12-13T10:05:44.001Z,4.00
2023-12-13T10:06:42.125Z,3.70
2023-12-13T10:07:42.239Z,3.40
2023-12-13T10:08:42.089Z,2.50
2023-12-13T10:09:42.083Z,4.10
2023-12-13T10:10:42.090Z,3.80
2023-12-13T10:11:42.080Z,3.00
2023-12-13T10:12:42.394Z,2.70
2023-12-13T10:13:42.087Z,2.80
2023-12-13T10:14:42.044Z,3.30
2023-12-13T10:15:42.009Z,2.80
2023-12-13T10:16:42.153Z,2.30
2023-12-13T10:17:43.176Z,1.90
2023-12-13T10:18:42.301Z,3.10
2023-12-13T10:19:41.982Z,3.10
2023-12-13T10:20:41.975Z,1.90
2023-12-13T10:21:41.985Z,2.70
2023-12-13T10:22:41.968Z,2.90
2023-12-13T10:23:41.963Z,2.80
2023-12-13T10:24:41.913Z,1.60
2023-12-13T10:25:41.939Z,2.30
2023-12-13T10:26:41.916Z,3.40
2023-12-13T10:27:41.879Z,3.60
2023-12-13T10:28:41.897Z,3.00
2023-12-13T10:29:41.856Z,1.40
2023-12-13T10:30:41.871Z,2.50
2023-12-13T10:31:43.440Z,1.30
2023-12-13T10:32:41.836Z,2.80
2023-12-13T10:33:41.887Z,3.60
2023-12-13T10:34:41.832Z,1.50
2023-12-13T10:35:42.382Z,3.20
2023-12-13T10:36:41.796Z,3.20
2023-12-13T10:37:41.815Z,1.80
2023-12-13T10:38:41.765Z,4.80
2023-12-13T10:39:41.763Z,2.90
2023-12-13T10:40:41.774Z,3.90
2023-12-13T10:41:41.752Z,2.20
2023-12-13T10:42:41.723Z,1.60
2023-12-13T10:43:41.749Z,2.00
2023-12-13T10:44:41.702Z,1.80
2023-12-13T10:45:41.692Z,2.10
2023-12-13T10:46:41.762Z,1.40
2023-12-13T10:47:41.746Z,1.60
2023-12-13T10:48:41.759Z,2.80
2023-12-13T10:49:41.701Z,3.30
2023-12-13T10:50:41.641Z,3.20
2023-12-13T10:51:41.645Z,4.00
2023-12-13T10:52:41.640Z,3.20
2023-12-13T10:53:41.644Z,1.20
2023-12-13T10:54:41.606Z,2.60
2023-12-13T10:55:41.629Z,4.40
2023-12-13T10:56:42.526Z,3.60
2023-12-13T10:57:41.589Z,2.30
2023-12-13T10:58:41.596Z,2.90
2023-12-13T10:59:41.533Z,3.50
2023-12-13T11:00:41.553Z,3.00
2023-12-13T11:01:41.552Z,3.70
2023-12-13T11:02:41.512Z,2.30
2023-12-13T11:03:41.532Z,1.50
2023-12-13T11:04:41.505Z,4.70
2023-12-13T11:05:41.463Z,4.40
2023-12-13T11:06:41.532Z,1.70
2023-12-13T11:07:41.461Z,3.00
2023-12-13T11:08:41.445Z,2.60
2023-12-13T11:09:41.435Z,4.00
2023-12-13T11:10:41.449Z,3.90
2023-12-13T11:11:41.428Z,5.00
2023-12-13T11:12:41.393Z,2.60
2023-12-13T11:13:41.463Z,2.80
2023-12-13T11:14:41.422Z,3.60
2023-12-13T11:15:41.356Z,2.10
2023-12-13T11:16:41.422Z,4.00
2023-12-13T11:17:41.393Z,4.50
2023-12-13T11:18:41.356Z,6.40
2023-12-13T11:19:41.335Z,4.50
2023-12-13T11:20:41.312Z,5.10
2023-12-13T11:21:41.319Z,4.60
2023-12-13T11:22:41.411Z,3.50
2023-12-13T11:23:41.279Z,4.10
2023-12-13T11:24:41.298Z,6.40
2023-12-13T11:25:41.289Z,6.40
2023-12-13T11:26:41.243Z,5.40
2023-12-13T11:27:41.253Z,3.20
2023-12-13T11:28:41.288Z,4.70
2023-12-13T11:29:41.210Z,8.40
2023-12-13T11:30:41.228Z,3.30
2023-12-13T11:31:41.267Z,6.10
2023-12-13T11:32:41.331Z,7.00
2023-12-13T11:33:41.220Z,6.50
2023-12-13T11:34:41.215Z,5.30
2023-12-13T11:35:41.143Z,6.20
2023-12-13T11:36:41.133Z,3.80
2023-12-13T11:37:41.174Z,4.40
2023-12-13T11:38:41.113Z,4.20
2023-12-13T11:39:41.089Z,7.30
2023-12-13T11:40:41.155Z,7.30
2023-12-13T11:41:41.076Z,2.90
2023-12-13T11:42:41.132Z,4.70
2023-12-13T11:43:41.087Z,8.00
2023-12-13T11:44:41.133Z,6.50
2023-12-13T11:45:41.076Z,3.20
2023-12-13T11:46:41.064Z,5.80
2023-12-13T11:47:41.073Z,4.00
2023-12-13T11:48:41.062Z,4.30
2023-12-13T11:49:41.117Z,7.40
2023-12-13T11:50:40.980Z,3.50
2023-12-13T11:51:40.977Z,5.50
2023-12-13T11:52:41.047Z,3.40
2023-12-13T11:53:40.966Z,7.70
2023-12-13T11:54:41.253Z,3.70
2023-12-13T11:55:40.925Z,3.70
2023-12-13T11:56:40.946Z,6.10
2023-12-13T11:57:40.943Z,7.20
2023-12-13T11:58:40.957Z,6.80
2023-12-13T11:59:40.899Z,5.70
2023-12-13T12:00:40.896Z,3.40
2023-12-13T12:01:40.893Z,5.70
2023-12-13T12:02:40.937Z,8.70
2023-12-13T12:03:40.870Z,7.40
2023-12-13T12:04:40.954Z,6.60
2023-12-13T12:05:40.895Z,4.60
2023-12-13T12:06:42.419Z,4.80
2023-12-13T12:07:40.851Z,5.40
2023-12-13T12:08:40.800Z,6.90
2023-12-13T12:09:40.774Z,6.80
2023-12-13T12:10:40.872Z,5.60
2023-12-13T12:11:40.782Z,6.10
2023-12-13T12:12:40.789Z,6.90
2023-12-13T12:13:40.799Z,5.00
2023-12-13T12:14:40.729Z,5.60
2023-12-13T12:15:40.749Z,5.00
2023-12-13T12:16:40.764Z,7.20
2023-12-13T12:17:41.275Z,6.50
2023-12-13T12:18:40.765Z,5.90
2023-12-13T12:19:40.688Z,5.80
2023-12-13T12:20:40.675Z,7.40
2023-12-13T12:21:40.641Z,10.90
2023-12-13T12:22:40.679Z,10.30
2023-12-13T12:23:40.637Z,11.60
2023-12-13T12:24:40.617Z,9.10
2023-12-13T12:25:40.669Z,10.80
2023-12-13T12:26:40.602Z,10.20
2023-12-13T12:27:40.614Z,8.40
2023-12-13T12:28:40.595Z,11.30
2023-12-13T12:29:40.571Z,10.10
2023-12-13T12:30:40.601Z,8.40
2023-12-13T12:31:40.588Z,8.10
2023-12-13T12:32:40.608Z,8.20
2023-12-13T12:33:41.540Z,7.60
2023-12-13T12:34:40.597Z,9.40
2023-12-13T12:35:40.506Z,8.60
2023-12-13T12:36:40.493Z,9.90
2023-12-13T12:37:40.496Z,7.60
2023-12-13T12:38:40.506Z,11.60
2023-12-13T12:39:40.467Z,6.80
2023-12-13T12:40:40.477Z,6.60
2023-12-13T12:41:40.445Z,6.60
2023-12-13T12:42:40.421Z,8.70
2023-12-13T12:43:40.514Z,7.40
2023-12-13T12:44:40.423Z,5.90
2023-12-13T12:45:40.406Z,8.50
2023-12-13T12:46:40.416Z,7.30
2023-12-13T12:47:41.038Z,7.30
2023-12-13T12:48:40.441Z,7.50
2023-12-13T12:49:40.366Z,9.30
2023-12-13T12:50:40.344Z,13.40
2023-12-13T12:51:40.316Z,7.00
2023-12-13T12:52:40.401Z,8.00
2023-12-13T12:53:40.329Z,7.00
2023-12-13T12:54:40.297Z,7.50
2023-12-13T12:55:40.296Z,7.80
2023-12-13T12:56:40.262Z,7.90
2023-12-13T12:57:40.258Z,9.50
2023-12-13T12:58:40.387Z,8.70
2023-12-13T12:59:40.253Z,8.40
2023-12-13T13:00:40.274Z,8.40
2023-12-13T13:01:40.240Z,8.20
2023-12-13T13:02:40.224Z,7.60
2023-12-13T13:03:40.332Z,8.10
2023-12-13T13:04:40.250Z,7.50
2023-12-13T13:05:40.259Z,5.70
2023-12-13T13:06:40.165Z,7.40
2023-12-13T13:07:40.430Z,8.50
2023-12-13T13:08:40.167Z,7.30
2023-12-13T13:09:40.129Z,8.60
2023-12-13T13:10:40.235Z,7.50
2023-12-13T13:11:40.126Z,8.00
2023-12-13T13:12:40.095Z,11.00
2023-12-13T13:13:40.173Z,5.90
2023-12-13T13:14:40.102Z,8.80
2023-12-13T13:15:40.065Z,7.60
2023-12-13T13:16:40.098Z,5.40